createdAt,value
2023-01-01T00:01:48.132Z,362.33
2023-01-01T00:05:51.311Z,393.60
2023-01-01T00:10:13.060Z,356.17
2023-01-01T00:14:16.061Z,356.98
2023-01-01T00:18:19.066Z,323.00
2023-01-01T00:22:53.232Z,418.23
2023-01-01T00:26:46.719Z,344.90
2023-01-01T00:30:49.947Z,318.90
2023-01-01T00:34:52.962Z,311.80
2023-01-01T00:38:56.425Z,305.02
2023-01-01T00:43:00.763Z,324.23
2023-01-01T00:47:04.109Z,293.45
2023-01-01T00:51:07.884Z,301.45
2023-01-01T00:55:11.388Z,302.42
2023-01-01T00:59:15.787Z,263.30
2023-01-01T01:03:29.064Z,185.02
2023-01-01T01:07:39.270Z,223.95
2023-01-01T01:11:42.480Z,170.38
2023-01-01T01:15:51.609Z,146.88
2023-01-01T01:19:58.419Z,131.55
2023-01-01T01:24:03.219Z,129.35
2023-01-01T01:28:06.296Z,111.38
2023-01-01T01:32:11.695Z,119.32
2023-01-01T01:36:16.246Z,116.80
2023-01-01T01:40:19.571Z,117.88
2023-01-01T01:44:52.479Z,109.95
2023-01-01T01:49:01.725Z,103.65
2023-01-01T01:53:09.654Z,96.13
2023-01-01T01:57:14.646Z,104.07
2023-01-01T02:01:18.210Z,105.57
2023-01-01T02:05:23.705Z,96.70
2023-01-01T02:09:26.980Z,107.43
2023-01-01T02:13:30.505Z,85.82
2023-01-01T02:17:40.369Z,86.80
2023-01-01T02:22:03.559Z,92.40
2023-01-01T02:26:23.774Z,93.82
2023-01-01T02:30:31.889Z,83.78
2023-01-01T02:34:39.393Z,80.45
2023-01-01T02:38:46.768Z,90.95
2023-01-01T02:42:50.471Z,78.30
2023-01-01T02:46:55.022Z,76.22
2023-01-01T02:51:04.991Z,80.15
2023-01-01T02:55:18.939Z,82.65
2023-01-01T02:59:48.754Z,73.03
2023-01-01T03:04:03.345Z,91.22
2023-01-01T03:08:12.105Z,75.68
2023-01-01T03:12:39.466Z,77.43
2023-01-01T03:16:48.715Z,77.82
2023-01-01T03:20:56.290Z,54.45
2023-01-01T03:25:02.706Z,77.90
2023-01-01T03:29:10.182Z,78.70
2023-01-01T03:33:19.859Z,74.22
2023-01-01T03:37:31.123Z,76.65
2023-01-01T03:41:39.083Z,79.70
2023-01-01T03:45:47.191Z,64.88
2023-01-01T03:49:50.211Z,64.80
2023-01-01T03:53:58.363Z,57.67
2023-01-01T03:58:06.889Z,54.50
2023-01-01T04:02:15.175Z,51.67
2023-01-01T04:06:18.594Z,35.08
2023-01-01T04:10:24.024Z,52.65
2023-01-01T04:14:29.496Z,62.83
2023-01-01T04:18:32.488Z,56.15
2023-01-01T04:22:35.746Z,57.90
2023-01-01T04:26:40.108Z,47.83
2023-01-01T04:34:45.018Z,43.65
2023-01-01T04:38:48.034Z,38.67
2023-01-01T04:42:54.743Z,40.17
2023-01-01T04:47:00.253Z,49.25
2023-01-01T04:51:06.033Z,42.70
2023-01-01T04:55:09.742Z,47.58
2023-01-01T04:59:14.196Z,45.55
2023-01-01T05:03:17.806Z,48.35
2023-01-01T05:07:20.867Z,43.95
2023-01-01T05:11:25.657Z,38.75
2023-01-01T05:15:30.026Z,39.70
2023-01-01T05:19:32.994Z,38.50
2023-01-01T05:23:36.311Z,39.97
2023-01-01T05:27:39.462Z,41.50
2023-01-01T05:31:43.935Z,41.03
2023-01-01T05:35:47.314Z,43.05
2023-01-01T05:39:50.296Z,42.40
2023-01-01T05:43:54.408Z,40.45
2023-01-01T05:47:59.088Z,39.55
2023-01-01T05:52:02.095Z,40.53
2023-01-01T05:56:06.064Z,39.55
2023-01-01T06:00:10.088Z,45.10
2023-01-01T06:04:15.008Z,40.45
2023-01-01T06:08:18.059Z,37.95
2023-01-01T06:12:22.089Z,43.13
2023-01-01T06:16:26.265Z,38.55
2023-01-01T06:20:31.040Z,46.35
2023-01-01T06:24:38.974Z,42.38
2023-01-01T06:28:43.607Z,45.42
2023-01-01T06:32:46.602Z,42.65
2023-01-01T06:36:50.979Z,47.75
2023-01-01T06:40:58.035Z,47.33
2023-01-01T06:45:01.024Z,43.92
2023-01-01T06:49:06.135Z,44.40
2023-01-01T06:53:10.533Z,49.55
2023-01-01T06:57:13.506Z,45.67
2023-01-01T07:01:19.113Z,44.45
2023-01-01T07:05:22.434Z,39.92
2023-01-01T07:09:26.804Z,39.75
2023-01-01T07:13:31.202Z,36.65
2023-01-01T07:17:35.679Z,37.95
2023-01-01T07:21:43.513Z,55.57
2023-01-01T07:25:50.424Z,53.67
2023-01-01T07:29:53.382Z,42.88
2023-01-01T07:33:56.647Z,48.80
2023-01-01T07:37:59.653Z,37.57
2023-01-01T07:42:10.651Z,40.07
2023-01-01T07:46:16.320Z,45.22
2023-01-01T07:50:19.614Z,39.42
2023-01-01T07:54:22.662Z,46.70
2023-01-01T07:58:27.042Z,51.50
2023-01-01T08:02:30.127Z,38.33
2023-01-01T08:06:33.387Z,46.33
2023-01-01T08:10:36.399Z,50.67
2023-01-01T08:14:40.762Z,41.22
2023-01-01T08:18:43.730Z,46.70
2023-01-01T08:22:46.964Z,40.90
2023-01-01T08:26:51.300Z,42.75
2023-01-01T08:30:55.898Z,44.10
2023-01-01T08:34:58.885Z,38.80
2023-01-01T08:39:02.340Z,41.60
2023-01-01T08:43:05.361Z,34.38
2023-01-01T08:47:18.190Z,41.97
2023-01-01T08:51:21.169Z,39.80
2023-01-01T08:55:24.171Z,40.45
2023-01-01T08:59:27.285Z,37.33
2023-01-01T09:03:31.713Z,40.72
2023-01-01T09:07:34.769Z,41.10
2023-01-01T09:11:38.211Z,39.38
2023-01-01T09:15:42.776Z,40.65
2023-01-01T09:19:47.162Z,40.20
2023-01-01T09:23:50.187Z,43.95
2023-01-01T09:27:58.713Z,39.38
2023-01-01T09:32:01.847Z,40.42
2023-01-01T09:36:17.640Z,40.30
2023-01-01T09:40:29.822Z,40.20
2023-01-01T09:45:22.664Z,41.63
2023-01-01T09:49:33.666Z,41.95
2023-01-01T09:53:42.767Z,38.72
2023-01-01T09:57:46.251Z,45.03
2023-01-01T10:01:58.527Z,45.70
2023-01-01T10:06:10.663Z,48.28
2023-01-01T10:10:29.246Z,46.67
2023-01-01T10:14:35.366Z,42.30
2023-01-01T10:18:41.055Z,46.15
2023-01-01T10:22:48.257Z,47.70
2023-01-01T10:26:55.495Z,36.35
2023-01-01T10:31:15.649Z,31.42
2023-01-01T10:35:28.359Z,26.48
2023-01-01T10:39:33.207Z,28.38
2023-01-01T10:43:38.129Z,24.10
2023-01-01T10:47:41.146Z,28.02
2023-01-01T10:51:46.736Z,25.15
2023-01-01T10:55:51.039Z,24.35
2023-01-01T10:59:55.734Z,21.05
2023-01-01T11:04:01.705Z,20.40
2023-01-01T11:08:05.404Z,22.63
2023-01-01T11:12:46.101Z,23.15
2023-01-01T11:16:46.802Z,24.27
2023-01-01T11:20:54.081Z,20.67
2023-01-01T11:25:01.989Z,26.23
2023-01-01T11:29:18.897Z,21.42
2023-01-01T11:33:23.547Z,23.98
2023-01-01T11:37:30.395Z,20.40
2023-01-01T11:41:43.140Z,20.67
2023-01-01T11:45:46.287Z,20.70
2023-01-01T11:49:56.353Z,20.35
2023-01-01T11:54:30.313Z,19.77
2023-01-01T11:58:39.707Z,18.40
2023-01-01T12:02:50.057Z,22.05
2023-01-01T12:06:59.846Z,21.88
2023-01-01T12:11:15.821Z,22.35
2023-01-01T12:15:25.761Z,21.17
2023-01-01T12:19:34.147Z,18.90
2023-01-01T12:23:38.567Z,20.88
2023-01-01T12:28:02.068Z,21.13
2023-01-01T12:32:11.622Z,19.52
2023-01-01T12:36:30.814Z,21.20
2023-01-01T12:40:49.475Z,22.60
2023-01-01T12:45:09.524Z,19.08
2023-01-01T12:49:34.708Z,20.48
2023-01-01T12:53:48.699Z,20.75
2023-01-01T12:57:58.563Z,22.02
2023-01-01T13:02:05.116Z,18.15
2023-01-01T13:06:13.846Z,20.98
2023-01-01T13:10:26.554Z,17.60
2023-01-01T13:14:31.154Z,16.70
2023-01-01T13:18:35.631Z,21.52
2023-01-01T13:22:43.138Z,18.13
2023-01-01T13:26:46.263Z,17.20
2023-01-01T13:30:52.132Z,20.55
2023-01-01T13:35:04.140Z,18.98
2023-01-01T13:39:08.460Z,18.88
2023-01-01T13:43:20.302Z,22.17
2023-01-01T13:47:36.337Z,18.48
2023-01-01T13:52:20.784Z,18.70
2023-01-01T13:56:38.003Z,22.20
2023-01-01T14:00:58.909Z,19.17
2023-01-01T14:05:06.541Z,19.73
2023-01-01T14:09:14.626Z,19.70
2023-01-01T14:13:19.189Z,19.70
2023-01-01T14:17:22.639Z,19.90
2023-01-01T14:21:32.055Z,21.52
2023-01-01T14:25:35.950Z,21.35
2023-01-01T14:29:39.701Z,20.45
2023-01-01T14:33:42.791Z,18.65
2023-01-01T14:37:47.205Z,19.45
2023-01-01T14:41:50.300Z,20.75
2023-01-01T14:45:53.430Z,20.23
2023-01-01T14:50:06.133Z,22.65
2023-01-01T14:54:18.407Z,22.83
2023-01-01T14:58:24.763Z,24.98
2023-01-01T15:02:30.435Z,20.35
2023-01-01T15:06:33.834Z,25.45
2023-01-01T15:10:39.718Z,26.50
2023-01-01T15:14:45.862Z,24.10
2023-01-01T15:18:51.377Z,19.05
2023-01-01T15:22:55.987Z,21.45
2023-01-01T15:27:02.689Z,20.60
2023-01-01T15:31:06.193Z,22.77
2023-01-01T15:35:27.760Z,19.38
2023-01-01T15:39:34.079Z,18.08
2023-01-01T15:43:39.125Z,20.15
2023-01-01T15:47:43.129Z,21.73
2023-01-01T15:51:46.169Z,18.80
2023-01-01T15:55:56.244Z,18.38
2023-01-01T16:00:00.759Z,18.33
2023-01-01T16:04:09.693Z,17.70
2023-01-01T16:08:12.667Z,18.02
2023-01-01T16:12:15.738Z,17.33
2023-01-01T16:16:27.953Z,17.58
2023-01-01T16:20:31.039Z,16.83
2023-01-01T16:24:36.562Z,15.43
2023-01-01T16:28:39.550Z,19.60
2023-01-01T16:32:44.154Z,14.32
2023-01-01T16:36:47.226Z,16.08
2023-01-01T16:40:52.123Z,16.40
2023-01-01T16:44:55.809Z,17.10
2023-01-01T16:49:00.230Z,12.02
2023-01-01T16:53:03.236Z,13.35
2023-01-01T16:57:06.213Z,13.43
2023-01-01T17:01:09.889Z,15.82
2023-01-01T17:05:14.597Z,15.48
2023-01-01T17:09:17.578Z,13.95
2023-01-01T17:13:20.597Z,12.73
2023-01-01T17:17:23.652Z,13.10
2023-01-01T17:21:28.384Z,15.38
2023-01-01T17:25:31.687Z,11.88
2023-01-01T17:29:34.683Z,11.75
2023-01-01T17:33:37.722Z,11.52
2023-01-01T17:37:42.319Z,18.50
2023-01-01T17:41:46.014Z,16.00
2023-01-01T17:45:49.076Z,17.92
2023-01-01T17:49:52.087Z,17.35
2023-01-01T17:53:57.602Z,19.42
2023-01-01T17:58:00.583Z,18.33
2023-01-01T18:02:05.934Z,17.02
2023-01-01T18:06:09.988Z,16.80
2023-01-01T18:10:14.397Z,18.25
2023-01-01T18:14:22.736Z,17.65
2023-01-01T18:18:27.621Z,15.45
2023-01-01T18:22:31.587Z,17.00
2023-01-01T18:26:36.177Z,15.20
2023-01-01T18:30:39.574Z,14.52
2023-01-01T18:34:42.794Z,15.32
2023-01-01T18:38:48.818Z,13.43
2023-01-01T18:43:02.848Z,12.20
2023-01-01T18:47:14.620Z,15.18
2023-01-01T18:51:23.249Z,13.50
2023-01-01T18:55:28.072Z,14.13
2023-01-01T18:59:33.615Z,14.23
2023-01-01T19:03:41.658Z,16.02
2023-01-01T19:07:51.918Z,12.85
2023-01-01T19:11:56.522Z,16.15
2023-01-01T19:16:07.457Z,13.15
2023-01-01T19:20:16.843Z,17.08
2023-01-01T19:24:22.983Z,16.35
2023-01-01T19:28:37.746Z,16.23
2023-01-01T19:32:45.248Z,13.25
2023-01-01T19:36:48.384Z,14.57
2023-01-01T19:40:51.513Z,13.38
2023-01-01T19:44:54.739Z,12.05
2023-01-01T19:48:59.507Z,13.68
2023-01-01T19:53:02.584Z,15.13
2023-01-01T19:57:05.645Z,14.13
2023-01-01T20:01:08.767Z,14.93
2023-01-01T20:05:13.189Z,13.95
2023-01-01T20:09:16.226Z,19.65
2023-01-01T20:13:19.531Z,15.65
2023-01-01T20:17:22.577Z,12.07
2023-01-01T20:21:44.611Z,14.10
2023-01-01T20:25:47.606Z,12.77
2023-01-01T20:29:50.731Z,13.63
2023-01-01T20:33:53.818Z,15.95
2023-01-01T20:37:58.356Z,15.43
2023-01-01T20:42:01.450Z,12.98
2023-01-01T20:46:04.467Z,14.98
2023-01-01T20:50:08.093Z,16.33
2023-01-01T20:54:12.635Z,17.10
2023-01-01T20:58:15.664Z,17.55
2023-01-01T21:02:19.021Z,16.73
2023-01-01T21:06:24.806Z,17.80
2023-01-01T21:10:29.427Z,16.23
2023-01-01T21:14:32.850Z,19.42
2023-01-01T21:18:36.312Z,16.88
2023-01-01T21:22:41.821Z,20.73
2023-01-01T21:26:46.248Z,17.92
2023-01-01T21:30:51.879Z,18.85
2023-01-01T21:34:56.409Z,16.10
2023-01-01T21:39:04.627Z,15.63
2023-01-01T21:43:24.099Z,15.02
2023-01-01T21:47:27.386Z,16.48
2023-01-01T21:51:33.587Z,16.40
2023-01-01T21:55:51.817Z,21.25
2023-01-01T21:59:57.874Z,19.05
2023-01-01T22:04:04.276Z,20.23
2023-01-01T22:08:24.805Z,21.20
2023-01-01T22:12:29.803Z,19.33
2023-01-01T22:16:34.219Z,23.80
2023-01-01T22:20:39.757Z,17.05
2023-01-01T22:24:45.823Z,19.15
2023-01-01T22:28:51.610Z,19.23
2023-01-01T22:33:01.230Z,18.83
2023-01-01T22:37:04.345Z,20.60
2023-01-01T22:41:09.149Z,18.38
2023-01-01T22:45:16.155Z,21.75
2023-01-01T22:49:24.079Z,20.60
2023-01-01T22:53:27.186Z,18.08
2023-01-01T22:57:30.166Z,22.35
2023-01-01T23:01:33.256Z,18.33
2023-01-01T23:05:37.857Z,18.30
2023-01-01T23:09:41.330Z,22.48
2023-01-01T23:14:06.330Z,22.05
2023-01-01T23:18:10.099Z,25.65
2023-01-01T23:22:16.232Z,24.55
2023-01-01T23:26:19.994Z,23.05
2023-01-01T23:30:23.047Z,20.95
2023-01-01T23:34:26.376Z,22.25
2023-01-01T23:38:31.676Z,21.17
2023-01-01T23:42:34.709Z,20.83
2023-01-01T23:46:39.559Z,23.50
2023-01-01T23:50:42.770Z,18.80
2023-01-01T23:54:47.136Z,20.27
2023-01-01T23:58:50.147Z,19.85
